sensor_id;sensor_type;location;lat;lon;timestamp;P1;durP1;ratioP1;P2;durP2;ratioP2
31782;SDS011;18351;47.560;9.708;2024-02-14T00:02:09;10.63;;;6.07;;
31782;SDS011;18351;47.560;9.708;2024-02-14T00:04:34;12.25;;;6.18;;
31782;SDS011;18351;47.560;9.708;2024-02-14T00:07:00;11.23;;;6.70;;
31782;SDS011;18351;47.560;9.708;2024-02-14T00:09:25;8.82;;;5.20;;
31782;SDS011;18351;47.560;9.708;2024-02-14T00:11:51;11.55;;;6.05;;
31782;SDS011;18351;47.560;9.708;2024-02-14T00:14:17;8.63;;;4.47;;
31782;SDS011;18351;47.560;9.708;2024-02-14T00:16:45;8.88;;;5.05;;
31782;SDS011;18351;47.560;9.708;2024-02-14T00:19:10;8.75;;;5.47;;
31782;SDS011;18351;47.560;9.708;2024-02-14T00:21:36;12.63;;;5.05;;
31782;SDS011;18351;47.560;9.708;2024-02-14T00:24:03;9.93;;;4.85;;
31782;SDS011;18351;47.560;9.708;2024-02-14T00:26:29;7.20;;;4.50;;
31782;SDS011;18351;47.560;9.708;2024-02-14T00:28:55;12.52;;;6.47;;
31782;SDS011;18351;47.560;9.708;2024-02-14T00:31:21;10.07;;;5.97;;
31782;SDS011;18351;47.560;9.708;2024-02-14T00:33:46;11.48;;;7.10;;
31782;SDS011;18351;47.560;9.708;2024-02-14T00:36:12;10.90;;;6.00;;
31782;SDS011;18351;47.560;9.708;2024-02-14T00:38:37;8.80;;;5.65;;
31782;SDS011;18351;47.560;9.708;2024-02-14T00:41:03;8.25;;;4.82;;
31782;SDS011;18351;47.560;9.708;2024-02-14T00:43:29;11.02;;;5.53;;
31782;SDS011;18351;47.560;9.708;2024-02-14T00:45:54;9.93;;;4.90;;
31782;SDS011;18351;47.560;9.708;2024-02-14T00:48:21;4.13;;;3.30;;
31782;SDS011;18351;47.560;9.708;2024-02-14T00:50:47;5.20;;;3.45;;
31782;SDS011;18351;47.560;9.708;2024-02-14T00:53:13;2.88;;;2.10;;
31782;SDS011;18351;47.560;9.708;2024-02-14T00:55:38;9.57;;;4.10;;
31782;SDS011;18351;47.560;9.708;2024-02-14T00:58:04;5.35;;;2.63;;
31782;SDS011;18351;47.560;9.708;2024-02-14T01:00:30;4.13;;;2.63;;
31782;SDS011;18351;47.560;9.708;2024-02-14T01:02:56;3.60;;;2.53;;
31782;SDS011;18351;47.560;9.708;2024-02-14T01:05:22;5.30;;;2.90;;
31782;SDS011;18351;47.560;9.708;2024-02-14T01:07:48;4.55;;;2.47;;
31782;SDS011;18351;47.560;9.708;2024-02-14T01:10:14;4.15;;;2.38;;
31782;SDS011;18351;47.560;9.708;2024-02-14T01:12:39;5.18;;;2.63;;
31782;SDS011;18351;47.560;9.708;2024-02-14T01:15:05;4.00;;;2.70;;
31782;SDS011;18351;47.560;9.708;2024-02-14T01:17:31;3.75;;;2.33;;
31782;SDS011;18351;47.560;9.708;2024-02-14T01:19:57;4.28;;;2.63;;
31782;SDS011;18351;47.560;9.708;2024-02-14T01:22:23;4.10;;;2.33;;
31782;SDS011;18351;47.560;9.708;2024-02-14T01:24:49;3.30;;;2.65;;
31782;SDS011;18351;47.560;9.708;2024-02-14T01:27:14;3.83;;;2.33;;
31782;SDS011;18351;47.560;9.708;2024-02-14T01:29:41;4.82;;;2.50;;
31782;SDS011;18351;47.560;9.708;2024-02-14T01:32:07;3.38;;;2.40;;
31782;SDS011;18351;47.560;9.708;2024-02-14T01:34:34;3.83;;;2.10;;
31782;SDS011;18351;47.560;9.708;2024-02-14T01:37:00;2.72;;;1.92;;
31782;SDS011;18351;47.560;9.708;2024-02-14T01:39:25;5.25;;;2.03;;
31782;SDS011;18351;47.560;9.708;2024-02-14T01:41:51;3.33;;;1.95;;
31782;SDS011;18351;47.560;9.708;2024-02-14T01:44:16;2.92;;;2.00;;
31782;SDS011;18351;47.560;9.708;2024-02-14T01:46:43;2.78;;;1.77;;
31782;SDS011;18351;47.560;9.708;2024-02-14T01:49:11;3.17;;;1.95;;
31782;SDS011;18351;47.560;9.708;2024-02-14T01:51:37;2.38;;;1.80;;
31782;SDS011;18351;47.560;9.708;2024-02-14T01:54:04;2.35;;;1.88;;
31782;SDS011;18351;47.560;9.708;2024-02-14T01:56:31;3.05;;;1.67;;
31782;SDS011;18351;47.560;9.708;2024-02-14T01:58:58;3.05;;;1.70;;
31782;SDS011;18351;47.560;9.708;2024-02-14T02:01:25;2.13;;;1.67;;
31782;SDS011;18351;47.560;9.708;2024-02-14T02:03:51;1.98;;;1.60;;
31782;SDS011;18351;47.560;9.708;2024-02-14T02:06:18;2.75;;;1.58;;
31782;SDS011;18351;47.560;9.708;2024-02-14T02:08:43;3.10;;;1.88;;
31782;SDS011;18351;47.560;9.708;2024-02-14T02:11:09;4.05;;;1.80;;
31782;SDS011;18351;47.560;9.708;2024-02-14T02:13:35;2.70;;;2.08;;
31782;SDS011;18351;47.560;9.708;2024-02-14T02:16:01;2.70;;;1.92;;
31782;SDS011;18351;47.560;9.708;2024-02-14T02:18:29;1.77;;;1.65;;
31782;SDS011;18351;47.560;9.708;2024-02-14T02:20:55;3.92;;;1.90;;
31782;SDS011;18351;47.560;9.708;2024-02-14T02:23:22;4.18;;;1.83;;
31782;SDS011;18351;47.560;9.708;2024-02-14T02:25:47;2.03;;;1.60;;
31782;SDS011;18351;47.560;9.708;2024-02-14T02:28:13;1.92;;;1.58;;
31782;SDS011;18351;47.560;9.708;2024-02-14T02:30:39;1.92;;;1.40;;
31782;SDS011;18351;47.560;9.708;2024-02-14T02:33:05;5.00;;;1.60;;
31782;SDS011;18351;47.560;9.708;2024-02-14T02:35:32;1.75;;;1.60;;
31782;SDS011;18351;47.560;9.708;2024-02-14T02:37:58;2.53;;;1.60;;
31782;SDS011;18351;47.560;9.708;2024-02-14T02:40:24;1.55;;;1.42;;
31782;SDS011;18351;47.560;9.708;2024-02-14T02:42:50;4.03;;;1.63;;
31782;SDS011;18351;47.560;9.708;2024-02-14T02:45:16;2.28;;;1.90;;
31782;SDS011;18351;47.560;9.708;2024-02-14T02:47:42;2.75;;;1.60;;
31782;SDS011;18351;47.560;9.708;2024-02-14T02:50:08;1.65;;;1.52;;
31782;SDS011;18351;47.560;9.708;2024-02-14T02:52:34;1.67;;;1.40;;
31782;SDS011;18351;47.560;9.708;2024-02-14T02:54:59;2.22;;;1.60;;
31782;SDS011;18351;47.560;9.708;2024-02-14T02:57:26;2.28;;;1.55;;
31782;SDS011;18351;47.560;9.708;2024-02-14T02:59:52;3.92;;;1.63;;
31782;SDS011;18351;47.560;9.708;2024-02-14T03:02:19;1.85;;;1.45;;
31782;SDS011;18351;47.560;9.708;2024-02-14T03:04:45;1.98;;;1.50;;
31782;SDS011;18351;47.560;9.708;2024-02-14T03:07:11;3.75;;;1.60;;
31782;SDS011;18351;47.560;9.708;2024-02-14T03:09:37;3.97;;;1.52;;
31782;SDS011;18351;47.560;9.708;2024-02-14T03:12:03;1.92;;;1.42;;
31782;SDS011;18351;47.560;9.708;2024-02-14T03:14:32;1.67;;;1.50;;
31782;SDS011;18351;47.560;9.708;2024-02-14T03:17:01;2.03;;;1.70;;
31782;SDS011;18351;47.560;9.708;2024-02-14T03:19:27;2.85;;;1.70;;
31782;SDS011;18351;47.560;9.708;2024-02-14T03:21:54;1.88;;;1.60;;
31782;SDS011;18351;47.560;9.708;2024-02-14T03:24:20;1.75;;;1.40;;
31782;SDS011;18351;47.560;9.708;2024-02-14T03:26:45;2.05;;;1.50;;
31782;SDS011;18351;47.560;9.708;2024-02-14T03:29:11;2.72;;;1.75;;
31782;SDS011;18351;47.560;9.708;2024-02-14T03:31:37;1.77;;;1.50;;
31782;SDS011;18351;47.560;9.708;2024-02-14T03:34:03;3.90;;;1.73;;
31782;SDS011;18351;47.560;9.708;2024-02-14T03:36:30;3.33;;;1.80;;
31782;SDS011;18351;47.560;9.708;2024-02-14T03:38:56;2.25;;;1.75;;
31782;SDS011;18351;47.560;9.708;2024-02-14T03:41:23;3.03;;;1.67;;
31782;SDS011;18351;47.560;9.708;2024-02-14T03:43:49;3.92;;;1.52;;
31782;SDS011;18351;47.560;9.708;2024-02-14T03:46:15;2.83;;;1.42;;
31782;SDS011;18351;47.560;9.708;2024-02-14T03:48:43;2.08;;;1.70;;
31782;SDS011;18351;47.560;9.708;2024-02-14T03:51:09;3.35;;;2.03;;
31782;SDS011;18351;47.560;9.708;2024-02-14T03:53:34;2.67;;;1.90;;
31782;SDS011;18351;47.560;9.708;2024-02-14T03:56:00;3.33;;;1.70;;
31782;SDS011;18351;47.560;9.708;2024-02-14T03:58:25;2.85;;;1.67;;
31782;SDS011;18351;47.560;9.708;2024-02-14T04:00:51;1.70;;;1.60;;
31782;SDS011;18351;47.560;9.708;2024-02-14T04:03:18;2.97;;;1.80;;
31782;SDS011;18351;47.560;9.708;2024-02-14T04:05:44;3.03;;;1.98;;
31782;SDS011;18351;47.560;9.708;2024-02-14T04:08:10;2.28;;;1.77;;
31782;SDS011;18351;47.560;9.708;2024-02-14T04:10:36;3.17;;;1.80;;
31782;SDS011;18351;47.560;9.708;2024-02-14T04:13:05;3.13;;;1.70;;
31782;SDS011;18351;47.560;9.708;2024-02-14T04:15:31;3.38;;;2.10;;
31782;SDS011;18351;47.560;9.708;2024-02-14T04:17:58;2.70;;;1.92;;
31782;SDS011;18351;47.560;9.708;2024-02-14T04:20:25;4.00;;;1.80;;
31782;SDS011;18351;47.560;9.708;2024-02-14T04:22:50;3.88;;;2.08;;
31782;SDS011;18351;47.560;9.708;2024-02-14T04:25:16;4.65;;;2.55;;
31782;SDS011;18351;47.560;9.708;2024-02-14T04:27:43;2.58;;;1.85;;
31782;SDS011;18351;47.560;9.708;2024-02-14T04:30:09;6.05;;;2.00;;
31782;SDS011;18351;47.560;9.708;2024-02-14T04:32:35;3.30;;;2.00;;
31782;SDS011;18351;47.560;9.708;2024-02-14T04:35:01;1.98;;;1.75;;
31782;SDS011;18351;47.560;9.708;2024-02-14T04:37:26;4.32;;;1.75;;
31782;SDS011;18351;47.560;9.708;2024-02-14T04:39:52;1.83;;;1.63;;
31782;SDS011;18351;47.560;9.708;2024-02-14T04:42:18;2.22;;;1.75;;
31782;SDS011;18351;47.560;9.708;2024-02-14T04:44:43;2.35;;;1.90;;
31782;SDS011;18351;47.560;9.708;2024-02-14T04:47:09;3.25;;;1.90;;
31782;SDS011;18351;47.560;9.708;2024-02-14T04:49:34;1.83;;;1.60;;
31782;SDS011;18351;47.560;9.708;2024-02-14T04:52:00;3.17;;;1.75;;
31782;SDS011;18351;47.560;9.708;2024-02-14T04:54:26;2.72;;;1.60;;
31782;SDS011;18351;47.560;9.708;2024-02-14T04:56:51;3.08;;;1.92;;
31782;SDS011;18351;47.560;9.708;2024-02-14T04:59:17;2.90;;;2.10;;
31782;SDS011;18351;47.560;9.708;2024-02-14T05:01:42;2.17;;;1.90;;
31782;SDS011;18351;47.560;9.708;2024-02-14T05:04:08;2.25;;;1.63;;
31782;SDS011;18351;47.560;9.708;2024-02-14T05:06:34;2.25;;;1.67;;
31782;SDS011;18351;47.560;9.708;2024-02-14T05:08:59;1.92;;;1.60;;
31782;SDS011;18351;47.560;9.708;2024-02-14T05:11:25;3.25;;;1.70;;
31782;SDS011;18351;47.560;9.708;2024-02-14T05:13:50;2.63;;;1.95;;
31782;SDS011;18351;47.560;9.708;2024-02-14T05:16:19;2.30;;;2.00;;
31782;SDS011;18351;47.560;9.708;2024-02-14T05:18:45;2.63;;;2.05;;
31782;SDS011;18351;47.560;9.708;2024-02-14T05:21:11;1.90;;;1.60;;
31782;SDS011;18351;47.560;9.708;2024-02-14T05:23:37;2.17;;;1.80;;
31782;SDS011;18351;47.560;9.708;2024-02-14T05:26:02;1.77;;;1.67;;
31782;SDS011;18351;47.560;9.708;2024-02-14T05:28:28;2.70;;;1.60;;
31782;SDS011;18351;47.560;9.708;2024-02-14T05:30:54;3.03;;;1.73;;
31782;SDS011;18351;47.560;9.708;2024-02-14T05:33:21;3.08;;;1.60;;
31782;SDS011;18351;47.560;9.708;2024-02-14T05:35:50;4.07;;;1.83;;
31782;SDS011;18351;47.560;9.708;2024-02-14T05:38:16;2.35;;;1.75;;
31782;SDS011;18351;47.560;9.708;2024-02-14T05:40:44;2.45;;;1.90;;
31782;SDS011;18351;47.560;9.708;2024-02-14T05:43:10;3.35;;;2.30;;
31782;SDS011;18351;47.560;9.708;2024-02-14T05:45:36;2.55;;;1.65;;
31782;SDS011;18351;47.560;9.708;2024-02-14T05:48:01;2.47;;;1.70;;
31782;SDS011;18351;47.560;9.708;2024-02-14T05:50:28;3.17;;;1.73;;
31782;SDS011;18351;47.560;9.708;2024-02-14T05:52:54;3.05;;;1.73;;
31782;SDS011;18351;47.560;9.708;2024-02-14T05:55:22;6.00;;;1.90;;
31782;SDS011;18351;47.560;9.708;2024-02-14T05:57:47;3.15;;;1.60;;
31782;SDS011;18351;47.560;9.708;2024-02-14T06:00:13;3.20;;;1.98;;
31782;SDS011;18351;47.560;9.708;2024-02-14T06:02:39;2.03;;;1.77;;
31782;SDS011;18351;47.560;9.708;2024-02-14T06:05:05;4.05;;;2.13;;
31782;SDS011;18351;47.560;9.708;2024-02-14T06:07:34;17.17;;;2.42;;
31782;SDS011;18351;47.560;9.708;2024-02-14T06:10:00;5.82;;;2.15;;
31782;SDS011;18351;47.560;9.708;2024-02-14T06:12:26;3.45;;;1.83;;
31782;SDS011;18351;47.560;9.708;2024-02-14T06:14:52;5.47;;;2.03;;
31782;SDS011;18351;47.560;9.708;2024-02-14T06:17:17;5.43;;;2.25;;
31782;SDS011;18351;47.560;9.708;2024-02-14T06:19:43;4.55;;;2.10;;
31782;SDS011;18351;47.560;9.708;2024-02-14T06:22:08;4.75;;;2.00;;
31782;SDS011;18351;47.560;9.708;2024-02-14T06:24:35;3.20;;;2.00;;
31782;SDS011;18351;47.560;9.708;2024-02-14T06:27:01;3.33;;;1.95;;
31782;SDS011;18351;47.560;9.708;2024-02-14T06:29:26;3.30;;;1.92;;
31782;SDS011;18351;47.560;9.708;2024-02-14T06:31:52;2.80;;;1.92;;
31782;SDS011;18351;47.560;9.708;2024-02-14T06:34:18;4.38;;;1.63;;
31782;SDS011;18351;47.560;9.708;2024-02-14T06:36:45;2.80;;;1.70;;
31782;SDS011;18351;47.560;9.708;2024-02-14T06:39:11;1.92;;;1.50;;
31782;SDS011;18351;47.560;9.708;2024-02-14T06:41:37;2.55;;;1.75;;
31782;SDS011;18351;47.560;9.708;2024-02-14T06:44:03;2.13;;;1.63;;
31782;SDS011;18351;47.560;9.708;2024-02-14T06:46:29;3.13;;;1.58;;
31782;SDS011;18351;47.560;9.708;2024-02-14T06:48:55;3.40;;;1.70;;
31782;SDS011;18351;47.560;9.708;2024-02-14T06:51:21;1.88;;;1.40;;
31782;SDS011;18351;47.560;9.708;2024-02-14T06:53:48;2.90;;;1.23;;
31782;SDS011;18351;47.560;9.708;2024-02-14T06:56:14;3.20;;;1.50;;
31782;SDS011;18351;47.560;9.708;2024-02-14T06:58:40;1.45;;;1.35;;
31782;SDS011;18351;47.560;9.708;2024-02-14T07:01:05;3.65;;;2.42;;
31782;SDS011;18351;47.560;9.708;2024-02-14T07:03:31;3.28;;;2.25;;
31782;SDS011;18351;47.560;9.708;2024-02-14T07:05:57;5.90;;;2.03;;
31782;SDS011;18351;47.560;9.708;2024-02-14T07:08:22;3.13;;;1.40;;
31782;SDS011;18351;47.560;9.708;2024-02-14T07:10:50;2.72;;;1.65;;
31782;SDS011;18351;47.560;9.708;2024-02-14T07:13:16;3.05;;;1.92;;
31782;SDS011;18351;47.560;9.708;2024-02-14T07:15:41;3.08;;;1.83;;
31782;SDS011;18351;47.560;9.708;2024-02-14T07:18:08;3.60;;;1.60;;
31782;SDS011;18351;47.560;9.708;2024-02-14T07:20:34;3.67;;;1.80;;
31782;SDS011;18351;47.560;9.708;2024-02-14T07:23:00;2.97;;;1.48;;
31782;SDS011;18351;47.560;9.708;2024-02-14T07:25:26;2.20;;;1.60;;
31782;SDS011;18351;47.560;9.708;2024-02-14T07:27:52;3.25;;;1.95;;
31782;SDS011;18351;47.560;9.708;2024-02-14T07:30:17;3.95;;;1.88;;
31782;SDS011;18351;47.560;9.708;2024-02-14T07:32:44;3.40;;;2.20;;
31782;SDS011;18351;47.560;9.708;2024-02-14T07:35:09;3.40;;;1.60;;
31782;SDS011;18351;47.560;9.708;2024-02-14T07:37:36;2.10;;;1.80;;
31782;SDS011;18351;47.560;9.708;2024-02-14T07:40:01;3.33;;;2.00;;
31782;SDS011;18351;47.560;9.708;2024-02-14T07:42:27;3.22;;;1.63;;
31782;SDS011;18351;47.560;9.708;2024-02-14T07:44:53;3.80;;;2.10;;
31782;SDS011;18351;47.560;9.708;2024-02-14T07:47:21;5.50;;;1.95;;
31782;SDS011;18351;47.560;9.708;2024-02-14T07:49:47;4.95;;;2.20;;
31782;SDS011;18351;47.560;9.708;2024-02-14T07:52:12;6.72;;;2.20;;
31782;SDS011;18351;47.560;9.708;2024-02-14T07:54:38;2.10;;;1.90;;
31782;SDS011;18351;47.560;9.708;2024-02-14T07:57:04;3.25;;;1.88;;
31782;SDS011;18351;47.560;9.708;2024-02-14T07:59:29;4.72;;;2.10;;
31782;SDS011;18351;47.560;9.708;2024-02-14T08:01:55;4.57;;;1.80;;
31782;SDS011;18351;47.560;9.708;2024-02-14T08:04:22;6.90;;;2.85;;
31782;SDS011;18351;47.560;9.708;2024-02-14T08:06:48;2.88;;;1.90;;
31782;SDS011;18351;47.560;9.708;2024-02-14T08:09:17;6.50;;;2.45;;
31782;SDS011;18351;47.560;9.708;2024-02-14T08:11:42;4.35;;;2.25;;
31782;SDS011;18351;47.560;9.708;2024-02-14T08:14:08;6.80;;;2.47;;
31782;SDS011;18351;47.560;9.708;2024-02-14T08:16:33;4.72;;;2.33;;
31782;SDS011;18351;47.560;9.708;2024-02-14T08:19:00;22.98;;;3.60;;
31782;SDS011;18351;47.560;9.708;2024-02-14T08:21:27;6.05;;;2.58;;
31782;SDS011;18351;47.560;9.708;2024-02-14T08:23:53;8.60;;;2.47;;
31782;SDS011;18351;47.560;9.708;2024-02-14T08:26:20;4.22;;;2.33;;
31782;SDS011;18351;47.560;9.708;2024-02-14T08:28:47;4.10;;;2.33;;
31782;SDS011;18351;47.560;9.708;2024-02-14T08:31:13;5.85;;;2.13;;
31782;SDS011;18351;47.560;9.708;2024-02-14T08:33:39;5.97;;;2.10;;
31782;SDS011;18351;47.560;9.708;2024-02-14T08:36:05;3.28;;;1.90;;
31782;SDS011;18351;47.560;9.708;2024-02-14T08:38:31;3.03;;;1.73;;
31782;SDS011;18351;47.560;9.708;2024-02-14T08:40:58;3.50;;;2.00;;
31782;SDS011;18351;47.560;9.708;2024-02-14T08:43:23;5.57;;;1.80;;
31782;SDS011;18351;47.560;9.708;2024-02-14T08:45:53;2.95;;;1.58;;
31782;SDS011;18351;47.560;9.708;2024-02-14T08:48:19;2.45;;;1.55;;
31782;SDS011;18351;47.560;9.708;2024-02-14T08:50:44;2.95;;;1.60;;
31782;SDS011;18351;47.560;9.708;2024-02-14T08:53:10;3.13;;;1.52;;
31782;SDS011;18351;47.560;9.708;2024-02-14T08:55:38;2.00;;;1.63;;
31782;SDS011;18351;47.560;9.708;2024-02-14T08:58:07;2.65;;;1.60;;
31782;SDS011;18351;47.560;9.708;2024-02-14T09:00:34;5.13;;;1.80;;
31782;SDS011;18351;47.560;9.708;2024-02-14T09:03:06;5.35;;;1.90;;
31782;SDS011;18351;47.560;9.708;2024-02-14T09:05:32;2.45;;;1.60;;
31782;SDS011;18351;47.560;9.708;2024-02-14T09:07:58;1.55;;;1.40;;
31782;SDS011;18351;47.560;9.708;2024-02-14T09:10:25;3.72;;;1.80;;
31782;SDS011;18351;47.560;9.708;2024-02-14T09:12:50;4.88;;;1.75;;
31782;SDS011;18351;47.560;9.708;2024-02-14T09:15:16;4.43;;;1.83;;
31782;SDS011;18351;47.560;9.708;2024-02-14T09:17:41;3.08;;;1.80;;
31782;SDS011;18351;47.560;9.708;2024-02-14T09:20:08;3.33;;;2.00;;
31782;SDS011;18351;47.560;9.708;2024-02-14T09:22:35;9.43;;;2.65;;
31782;SDS011;18351;47.560;9.708;2024-02-14T09:25:01;3.75;;;1.75;;
31782;SDS011;18351;47.560;9.708;2024-02-14T09:27:29;2.85;;;1.75;;
31782;SDS011;18351;47.560;9.708;2024-02-14T09:29:58;3.33;;;1.83;;
31782;SDS011;18351;47.560;9.708;2024-02-14T09:32:24;4.40;;;2.42;;
31782;SDS011;18351;47.560;9.708;2024-02-14T09:34:50;3.45;;;1.83;;
31782;SDS011;18351;47.560;9.708;2024-02-14T09:37:16;3.90;;;1.90;;
31782;SDS011;18351;47.560;9.708;2024-02-14T09:39:42;8.40;;;1.70;;
31782;SDS011;18351;47.560;9.708;2024-02-14T09:42:09;2.88;;;1.55;;
31782;SDS011;18351;47.560;9.708;2024-02-14T09:44:38;7.03;;;1.80;;
31782;SDS011;18351;47.560;9.708;2024-02-14T09:47:05;2.33;;;1.60;;
31782;SDS011;18351;47.560;9.708;2024-02-14T09:49:32;2.38;;;1.80;;
31782;SDS011;18351;47.560;9.708;2024-02-14T09:52:01;1.92;;;1.63;;
31782;SDS011;18351;47.560;9.708;2024-02-14T09:54:31;5.40;;;1.98;;
31782;SDS011;18351;47.560;9.708;2024-02-14T09:56:59;4.07;;;2.00;;
31782;SDS011;18351;47.560;9.708;2024-02-14T09:59:27;2.60;;;1.88;;
31782;SDS011;18351;47.560;9.708;2024-02-14T10:01:54;4.32;;;2.20;;
31782;SDS011;18351;47.560;9.708;2024-02-14T10:04:19;3.40;;;2.00;;
31782;SDS011;18351;47.560;9.708;2024-02-14T10:06:47;6.70;;;2.42;;
31782;SDS011;18351;47.560;9.708;2024-02-14T10:09:17;3.33;;;1.80;;
31782;SDS011;18351;47.560;9.708;2024-02-14T10:11:44;2.90;;;1.80;;
31782;SDS011;18351;47.560;9.708;2024-02-14T10:14:11;4.95;;;1.50;;
31782;SDS011;18351;47.560;9.708;2024-02-14T10:16:37;3.53;;;1.60;;
31782;SDS011;18351;47.560;9.708;2024-02-14T10:19:03;5.43;;;2.53;;
31782;SDS011;18351;47.560;9.708;2024-02-14T10:21:29;3.13;;;2.00;;
31782;SDS011;18351;47.560;9.708;2024-02-14T10:23:59;4.68;;;1.60;;
31782;SDS011;18351;47.560;9.708;2024-02-14T10:26:25;3.25;;;1.83;;
31782;SDS011;18351;47.560;9.708;2024-02-14T10:28:50;4.38;;;1.88;;
31782;SDS011;18351;47.560;9.708;2024-02-14T10:31:16;3.13;;;1.50;;
31782;SDS011;18351;47.560;9.708;2024-02-14T10:33:42;2.65;;;1.60;;
31782;SDS011;18351;47.560;9.708;2024-02-14T10:36:08;2.05;;;1.30;;
31782;SDS011;18351;47.560;9.708;2024-02-14T10:38:34;3.95;;;1.88;;
31782;SDS011;18351;47.560;9.708;2024-02-14T10:41:00;2.00;;;1.55;;
31782;SDS011;18351;47.560;9.708;2024-02-14T10:43:27;6.43;;;1.70;;
31782;SDS011;18351;47.560;9.708;2024-02-14T10:45:56;2.95;;;1.80;;
31782;SDS011;18351;47.560;9.708;2024-02-14T10:48:24;1.67;;;1.35;;
31782;SDS011;18351;47.560;9.708;2024-02-14T10:50:50;4.85;;;2.10;;
31782;SDS011;18351;47.560;9.708;2024-02-14T10:53:18;5.75;;;1.92;;
31782;SDS011;18351;47.560;9.708;2024-02-14T10:55:46;5.60;;;1.98;;
31782;SDS011;18351;47.560;9.708;2024-02-14T10:58:13;9.32;;;2.35;;
31782;SDS011;18351;47.560;9.708;2024-02-14T11:00:41;9.63;;;1.65;;
31782;SDS011;18351;47.560;9.708;2024-02-14T11:03:08;3.28;;;1.75;;
31782;SDS011;18351;47.560;9.708;2024-02-14T11:05:44;3.78;;;1.70;;
31782;SDS011;18351;47.560;9.708;2024-02-14T11:08:14;4.10;;;1.65;;
31782;SDS011;18351;47.560;9.708;2024-02-14T11:10:40;4.25;;;1.98;;
31782;SDS011;18351;47.560;9.708;2024-02-14T11:13:09;4.72;;;1.95;;
31782;SDS011;18351;47.560;9.708;2024-02-14T11:15:39;4.20;;;2.00;;
31782;SDS011;18351;47.560;9.708;2024-02-14T11:18:05;4.18;;;1.70;;
31782;SDS011;18351;47.560;9.708;2024-02-14T11:20:35;5.60;;;2.05;;
31782;SDS011;18351;47.560;9.708;2024-02-14T11:25:31;11.27;;;2.60;;
31782;SDS011;18351;47.560;9.708;2024-02-14T11:27:59;2.85;;;2.05;;
31782;SDS011;18351;47.560;9.708;2024-02-14T11:30:45;5.55;;;2.30;;
31782;SDS011;18351;47.560;9.708;2024-02-14T11:33:14;4.47;;;2.30;;
31782;SDS011;18351;47.560;9.708;2024-02-14T11:35:40;5.30;;;1.98;;
31782;SDS011;18351;47.560;9.708;2024-02-14T11:38:07;4.22;;;1.98;;
31782;SDS011;18351;47.560;9.708;2024-02-14T11:40:34;2.88;;;1.80;;
31782;SDS011;18351;47.560;9.708;2024-02-14T11:43:00;4.60;;;2.05;;
31782;SDS011;18351;47.560;9.708;2024-02-14T11:45:26;5.65;;;1.98;;
31782;SDS011;18351;47.560;9.708;2024-02-14T11:47:52;3.00;;;1.90;;
31782;SDS011;18351;47.560;9.708;2024-02-14T11:50:18;3.85;;;2.28;;
31782;SDS011;18351;47.560;9.708;2024-02-14T11:52:44;6.53;;;2.47;;
31782;SDS011;18351;47.560;9.708;2024-02-14T11:55:10;3.53;;;1.90;;
31782;SDS011;18351;47.560;9.708;2024-02-14T11:57:37;3.35;;;1.80;;
31782;SDS011;18351;47.560;9.708;2024-02-14T12:00:03;5.72;;;1.77;;
31782;SDS011;18351;47.560;9.708;2024-02-14T12:02:29;4.00;;;2.00;;
31782;SDS011;18351;47.560;9.708;2024-02-14T12:04:55;7.13;;;1.77;;
31782;SDS011;18351;47.560;9.708;2024-02-14T12:07:22;9.57;;;2.13;;
31782;SDS011;18351;47.560;9.708;2024-02-14T12:09:48;3.33;;;1.75;;
31782;SDS011;18351;47.560;9.708;2024-02-14T12:12:14;3.08;;;1.65;;
31782;SDS011;18351;47.560;9.708;2024-02-14T12:14:40;5.32;;;1.90;;
31782;SDS011;18351;47.560;9.708;2024-02-14T12:17:09;5.28;;;1.60;;
31782;SDS011;18351;47.560;9.708;2024-02-14T12:19:35;3.80;;;1.80;;
31782;SDS011;18351;47.560;9.708;2024-02-14T12:22:08;3.05;;;1.70;;
31782;SDS011;18351;47.560;9.708;2024-02-14T12:27:03;6.15;;;2.08;;
31782;SDS011;18351;47.560;9.708;2024-02-14T12:29:29;3.03;;;1.73;;
31782;SDS011;18351;47.560;9.708;2024-02-14T12:32:07;10.48;;;4.00;;
31782;SDS011;18351;47.560;9.708;2024-02-14T12:34:33;4.95;;;3.00;;
31782;SDS011;18351;47.560;9.708;2024-02-14T12:36:59;2.83;;;1.73;;
31782;SDS011;18351;47.560;9.708;2024-02-14T12:39:25;4.18;;;2.20;;
31782;SDS011;18351;47.560;9.708;2024-02-14T12:41:54;2.85;;;2.20;;
31782;SDS011;18351;47.560;9.708;2024-02-14T12:44:20;8.00;;;3.05;;
31782;SDS011;18351;47.560;9.708;2024-02-14T12:46:45;4.10;;;1.95;;
31782;SDS011;18351;47.560;9.708;2024-02-14T12:49:11;5.95;;;2.85;;
31782;SDS011;18351;47.560;9.708;2024-02-14T12:51:36;5.55;;;3.08;;
31782;SDS011;18351;47.560;9.708;2024-02-14T12:54:04;5.45;;;3.20;;
31782;SDS011;18351;47.560;9.708;2024-02-14T12:56:30;5.70;;;3.03;;
31782;SDS011;18351;47.560;9.708;2024-02-14T12:58:56;3.85;;;2.90;;
31782;SDS011;18351;47.560;9.708;2024-02-14T13:01:24;8.05;;;3.00;;
31782;SDS011;18351;47.560;9.708;2024-02-14T13:03:50;8.02;;;2.38;;
31782;SDS011;18351;47.560;9.708;2024-02-14T13:06:15;4.68;;;2.30;;
31782;SDS011;18351;47.560;9.708;2024-02-14T13:08:41;5.80;;;2.35;;
31782;SDS011;18351;47.560;9.708;2024-02-14T13:11:06;7.65;;;2.58;;
31782;SDS011;18351;47.560;9.708;2024-02-14T13:13:33;3.75;;;2.13;;
31782;SDS011;18351;47.560;9.708;2024-02-14T13:15:59;3.47;;;2.22;;
31782;SDS011;18351;47.560;9.708;2024-02-14T13:18:25;6.07;;;2.70;;
31782;SDS011;18351;47.560;9.708;2024-02-14T13:20:51;11.20;;;2.38;;
31782;SDS011;18351;47.560;9.708;2024-02-14T13:23:24;4.50;;;2.67;;
31782;SDS011;18351;47.560;9.708;2024-02-14T13:25:53;8.27;;;1.95;;
31782;SDS011;18351;47.560;9.708;2024-02-14T13:28:18;3.50;;;2.08;;
31782;SDS011;18351;47.560;9.708;2024-02-14T13:30:44;6.07;;;2.13;;
31782;SDS011;18351;47.560;9.708;2024-02-14T13:33:11;3.85;;;1.90;;
31782;SDS011;18351;47.560;9.708;2024-02-14T13:35:38;9.40;;;2.58;;
31782;SDS011;18351;47.560;9.708;2024-02-14T13:38:05;4.78;;;2.13;;
31782;SDS011;18351;47.560;9.708;2024-02-14T13:40:31;6.38;;;2.05;;
31782;SDS011;18351;47.560;9.708;2024-02-14T13:42:57;6.10;;;1.98;;
31782;SDS011;18351;47.560;9.708;2024-02-14T13:45:23;4.57;;;2.20;;
31782;SDS011;18351;47.560;9.708;2024-02-14T13:47:49;4.80;;;1.80;;
31782;SDS011;18351;47.560;9.708;2024-02-14T13:50:14;6.07;;;2.17;;
31782;SDS011;18351;47.560;9.708;2024-02-14T13:52:40;4.82;;;1.80;;
31782;SDS011;18351;47.560;9.708;2024-02-14T13:55:05;5.63;;;1.98;;
31782;SDS011;18351;47.560;9.708;2024-02-14T13:57:38;4.45;;;1.70;;
31782;SDS011;18351;47.560;9.708;2024-02-14T14:00:05;3.55;;;1.85;;
31782;SDS011;18351;47.560;9.708;2024-02-14T14:02:34;3.97;;;2.13;;
31782;SDS011;18351;47.560;9.708;2024-02-14T14:05:01;2.88;;;2.28;;
31782;SDS011;18351;47.560;9.708;2024-02-14T14:07:28;3.90;;;1.80;;
31782;SDS011;18351;47.560;9.708;2024-02-14T14:09:54;2.80;;;1.80;;
31782;SDS011;18351;47.560;9.708;2024-02-14T14:12:19;3.40;;;2.00;;
31782;SDS011;18351;47.560;9.708;2024-02-14T14:14:45;8.43;;;2.10;;
31782;SDS011;18351;47.560;9.708;2024-02-14T14:17:11;4.00;;;2.15;;
31782;SDS011;18351;47.560;9.708;2024-02-14T14:19:36;3.70;;;2.25;;
31782;SDS011;18351;47.560;9.708;2024-02-14T14:22:02;4.35;;;2.25;;
31782;SDS011;18351;47.560;9.708;2024-02-14T14:24:27;4.68;;;1.95;;
31782;SDS011;18351;47.560;9.708;2024-02-14T14:26:56;7.25;;;3.00;;
31782;SDS011;18351;47.560;9.708;2024-02-14T14:29:21;5.95;;;2.15;;
31782;SDS011;18351;47.560;9.708;2024-02-14T14:31:47;7.40;;;2.00;;
31782;SDS011;18351;47.560;9.708;2024-02-14T14:34:14;7.10;;;2.60;;
31782;SDS011;18351;47.560;9.708;2024-02-14T14:36:39;3.38;;;1.80;;
31782;SDS011;18351;47.560;9.708;2024-02-14T14:39:06;2.33;;;1.73;;
31782;SDS011;18351;47.560;9.708;2024-02-14T14:41:31;4.30;;;2.20;;
31782;SDS011;18351;47.560;9.708;2024-02-14T14:43:57;3.83;;;1.90;;
31782;SDS011;18351;47.560;9.708;2024-02-14T14:46:22;3.80;;;2.22;;
31782;SDS011;18351;47.560;9.708;2024-02-14T14:48:48;3.08;;;2.00;;